Time;durP1;ratioP1;P1;durP2;ratioP2;P2;SDS_P1;SDS_P2;PMS_P1;PMS_P2;Temp;Humidity;BMP_temperature;BMP_pressure;BME280_temperature;BME280_humidity;BME280_pressure;Samples;Min_cycle;Max_cycle;Signal;HPM_P1;HPM_P2
2023/08/26 00:01:52;;;;;;;8.05;5.32;;;20.30;99.90;;;;;;5052570;28;20233;-68
2023/08/26 00:04:19;;;;;;;6.30;5.03;;;20.30;99.90;;;;;;5033573;28;20040;-68
2023/08/26 00:06:44;;;;;;;9.27;4.78;;;20.10;99.90;;;;;;5033632;28;20504;-68
2023/08/26 00:09:10;;;;;;;13.63;5.53;;;20.20;99.90;;;;;;5033359;28;20037;-68
2023/08/26 00:11:35;;;;;;;6.35;5.03;;;20.10;99.90;;;;;;5051243;28;20450;-68
2023/08/26 00:14:01;;;;;;;7.80;4.80;;;20.10;99.90;;;;;;5051474;28;20504;-67
2023/08/26 00:16:27;;;;;;;5.95;4.60;;;20.10;99.90;;;;;;5033374;28;20037;-67
2023/08/26 00:18:53;;;;;;;6.05;4.72;;;20.10;99.90;;;;;;5033195;28;20045;-68
2023/08/26 00:21:21;;;;;;;6.32;4.80;;;20.20;99.90;;;;;;5051061;28;20532;-68
2023/08/26 00:23:50;;;;;;;6.28;4.55;;;20.20;99.90;;;;;;5016872;28;20116;-68
2023/08/26 00:26:19;;;;;;;7.07;4.13;;;20.00;99.90;;;;;;5033207;28;20084;-68
2023/08/26 00:28:45;;;;;;;6.45;4.38;;;20.00;99.90;;;;;;5033134;28;20033;-68
2023/08/26 00:31:10;;;;;;;4.82;4.22;;;20.00;99.90;;;;;;5033182;28;20069;-68
2023/08/26 00:33:36;;;;;;;6.30;3.42;;;20.10;99.90;;;;;;5033451;28;20033;-67
2023/08/26 00:36:02;;;;;;;8.68;4.03;;;19.90;99.90;;;;;;5050889;28;20465;-68
2023/08/26 00:38:28;;;;;;;4.57;3.50;;;19.90;99.90;;;;;;5050983;28;20443;-68
2023/08/26 00:40:54;;;;;;;4.95;3.70;;;19.90;99.90;;;;;;5052315;28;20111;-67
2023/08/26 00:43:20;;;;;;;6.78;3.50;;;20.00;99.90;;;;;;5037243;28;20524;-68
2023/08/26 00:45:48;;;;;;;4.05;3.20;;;19.80;99.90;;;;;;5036771;28;20037;-68
2023/08/26 00:48:15;;;;;;;3.53;3.22;;;19.80;99.90;;;;;;5054988;28;20045;-68
2023/08/26 00:50:46;;;;;;;6.55;3.33;;;19.70;99.90;;;;;;5037070;28;20048;-68
2023/08/26 00:53:13;;;;;;;8.27;3.88;;;19.80;99.90;;;;;;5037138;28;20457;-69
2023/08/26 00:55:40;;;;;;;5.50;3.20;;;19.80;99.90;;;;;;5054652;28;20120;-67
2023/08/26 00:58:06;;;;;;;6.40;3.38;;;19.70;99.90;;;;;;5036814;28;20082;-68
2023/08/26 01:00:35;;;;;;;4.38;3.10;;;19.70;99.90;;;;;;5054417;28;20082;-67
2023/08/26 01:03:01;;;;;;;6.25;3.22;;;19.50;99.90;;;;;;5036723;28;20048;-68
2023/08/26 01:05:28;;;;;;;6.80;3.33;;;19.70;99.90;;;;;;5036313;28;20041;-68
2023/08/26 01:07:54;;;;;;;6.90;3.58;;;19.60;99.90;;;;;;5054317;28;20044;-68
2023/08/26 01:10:31;;;;;;;7.38;4.03;;;19.50;99.90;;;;;;5054310;28;20508;-67
2023/08/26 01:13:05;;;;;;;9.02;3.85;;;19.40;99.90;;;;;;5036475;28;20044;-68
2023/08/26 01:15:35;;;;;;;5.68;3.70;;;19.60;99.90;;;;;;5036289;28;20041;-68
2023/08/26 01:18:05;;;;;;;4.10;3.17;;;19.40;99.90;;;;;;5054281;28;20072;-68
2023/08/26 01:20:32;;;;;;;6.65;3.45;;;19.30;99.90;;;;;;5053827;28;20090;-68
2023/08/26 01:22:59;;;;;;;9.52;3.90;;;19.30;99.90;;;;;;5036495;28;20041;-67
2023/08/26 01:25:25;;;;;;;5.38;3.30;;;19.30;99.90;;;;;;5036037;28;20036;-67
2023/08/26 01:27:52;;;;;;;6.65;3.97;;;19.20;99.90;;;;;;5036163;28;20044;-68
2023/08/26 01:30:19;;;;;;;5.05;3.45;;;19.10;99.90;;;;;;5054408;28;20067;-67
2023/08/26 01:33:09;;;;;;;5.55;3.97;;;19.20;99.90;;;;;;5036348;28;20519;-68
2023/08/26 01:35:41;;;;;;;7.22;4.15;;;19.20;99.90;;;;;;5036068;28;20467;-68
2023/08/26 01:38:08;;;;;;;6.88;4.35;;;19.10;99.90;;;;;;5036027;28;20041;-68
2023/08/26 01:40:34;;;;;;;8.52;4.82;;;18.80;99.90;;;;;;5035785;28;20037;-68
2023/08/26 01:43:02;;;;;;;6.45;5.10;;;18.70;99.90;;;;;;5036002;28;20056;-68
2023/08/26 01:45:28;;;;;;;5.35;4.53;;;19.00;99.90;;;;;;5053431;28;20037;-68
2023/08/26 01:47:54;;;;;;;6.60;4.97;;;18.70;99.90;;;;;;5035942;28;20037;-67
2023/08/26 01:50:20;;;;;;;6.70;4.90;;;18.90;99.90;;;;;;5035771;28;20128;-68
2023/08/26 01:52:45;;;;;;;8.55;5.30;;;18.90;99.90;;;;;;5034908;28;20045;-68
2023/08/26 01:55:11;;;;;;;6.47;4.63;;;18.60;99.90;;;;;;5053468;28;20120;-68
2023/08/26 01:57:37;;;;;;;8.80;5.75;;;18.80;99.90;;;;;;5035906;28;20116;-68
2023/08/26 02:00:03;;;;;;;8.40;5.55;;;18.90;99.90;;;;;;5053898;28;20114;-67
2023/08/26 02:02:29;;;;;;;8.73;5.28;;;18.60;99.90;;;;;;5035867;28;20052;-68
2023/08/26 02:04:54;;;;;;;8.50;6.57;;;18.60;99.90;;;;;;5035488;28;20037;-68
2023/08/26 02:07:20;;;;;;;9.35;5.47;;;18.60;99.90;;;;;;5053528;28;20488;-68
2023/08/26 02:09:45;;;;;;;7.68;4.45;;;18.70;99.90;;;;;;5053212;28;20078;-68
2023/08/26 02:12:11;;;;;;;10.25;5.22;;;18.50;99.90;;;;;;5053239;28;20090;-68
2023/08/26 02:14:37;;;;;;;5.38;4.80;;;18.60;99.90;;;;;;5052888;28;20561;-68
2023/08/26 02:17:02;;;;;;;6.45;4.63;;;18.50;99.90;;;;;;5035303;28;20046;-68
2023/08/26 02:19:28;;;;;;;7.43;4.57;;;18.40;99.90;;;;;;5035422;28;20044;-68
2023/08/26 02:21:54;;;;;;;7.00;5.13;;;18.60;99.90;;;;;;5035168;28;20052;-67
2023/08/26 02:24:20;;;;;;;6.13;5.05;;;18.60;99.90;;;;;;5034968;28;20052;-68
2023/08/26 02:26:45;;;;;;;8.00;5.22;;;18.60;99.90;;;;;;5035343;28;20037;-68
2023/08/26 02:29:11;;;;;;;6.53;5.00;;;18.30;99.90;;;;;;5035003;28;20037;-68
2023/08/26 02:31:36;;;;;;;8.35;5.22;;;18.30;99.90;;;;;;5053048;28;20033;-68
2023/08/26 02:34:02;;;;;;;7.00;4.70;;;18.50;99.90;;;;;;5052624;28;20401;-68
2023/08/26 02:36:28;;;;;;;8.15;5.05;;;;;;;;;;5052951;28;20041;-68
2023/08/26 02:38:54;;;;;;;7.13;5.07;;;18.50;99.90;;;;;;5034999;28;20045;-68
2023/08/26 02:41:19;;;;;;;8.43;5.13;;;18.50;99.90;;;;;;5034800;28;20048;-68
2023/08/26 02:43:45;;;;;;;8.52;5.35;;;18.40;99.90;;;;;;5052530;28;20120;-68
2023/08/26 02:46:11;;;;;;;6.03;5.43;;;;;;;;;;5034492;28;20484;-68
2023/08/26 02:48:37;;;;;;;7.97;5.03;;;;;;;;;;5034584;28;20136;-68
2023/08/26 02:51:02;;;;;;;7.25;5.03;;;18.10;99.90;;;;;;5034598;28;20052;-68
2023/08/26 02:53:30;;;;;;;7.15;5.13;;;18.40;99.90;;;;;;5034749;28;20122;-69
2023/08/26 02:55:56;;;;;;;6.43;5.30;;;18.20;99.90;;;;;;5052319;28;20409;-70
2023/08/26 02:58:22;;;;;;;6.93;5.20;;;;;;;;;;5052199;28;20033;-69
2023/08/26 03:00:48;;;;;;;10.05;5.60;;;18.10;99.90;;;;;;5034434;28;20037;-68
2023/08/26 03:03:14;;;;;;;8.65;5.13;;;18.20;99.90;;;;;;5034346;28;20060;-68
2023/08/26 03:05:40;;;;;;;7.80;5.40;;;;;;;;;;5034440;28;20033;-67
2023/08/26 03:08:07;;;;;;;6.53;5.47;;;18.30;99.90;;;;;;5052144;28;20396;-67
2023/08/26 03:10:33;;;;;;;7.30;5.75;;;18.20;99.90;;;;;;5034509;28;20045;-68
2023/08/26 03:12:59;;;;;;;6.35;4.90;;;18.20;99.90;;;;;;5034089;28;20515;-68
2023/08/26 03:15:30;;;;;;;11.10;5.78;;;18.50;99.90;;;;;;5052310;28;20044;-68
2023/08/26 03:17:56;;;;;;;5.80;4.82;;;18.30;99.90;;;;;;5034099;28;20048;-68
2023/08/26 03:20:22;;;;;;;6.55;5.63;;;18.20;99.90;;;;;;5033959;28;20523;-68
2023/08/26 03:22:48;;;;;;;5.38;4.68;;;;;;;;;;5033969;28;20116;-68
2023/08/26 03:25:14;;;;;;;6.22;4.38;;;18.50;99.90;;;;;;5033786;28;20037;-68
2023/08/26 03:27:40;;;;;;;8.68;6.15;;;18.70;99.90;;;;;;5033961;28;20140;-68
2023/08/26 03:30:06;;;;;;;7.75;5.25;;;18.40;99.90;;;;;;5017790;28;20039;-68
2023/08/26 03:32:31;;;;;;;7.60;5.18;;;18.50;99.90;;;;;;5034076;28;20037;-68
2023/08/26 03:34:57;;;;;;;10.43;5.40;;;18.70;99.90;;;;;;5051759;28;20040;-68
2023/08/26 03:37:24;;;;;;;8.30;5.97;;;18.50;99.90;;;;;;5033922;28;20048;-68
2023/08/26 03:39:49;;;;;;;5.32;4.38;;;18.70;99.90;;;;;;5033822;28;20029;-69
2023/08/26 03:42:15;;;;;;;7.50;4.53;;;18.70;99.90;;;;;;5051720;28;20506;-68
2023/08/26 03:44:40;;;;;;;6.65;4.57;;;18.40;99.90;;;;;;5033650;28;20475;-68
2023/08/26 03:47:06;;;;;;;7.20;5.38;;;18.60;99.90;;;;;;5033815;28;20040;-68
2023/08/26 03:49:32;;;;;;;8.50;4.55;;;18.40;99.90;;;;;;5051662;28;20040;-68
2023/08/26 03:51:58;;;;;;;9.35;4.57;;;;;;;;;;5034191;28;20484;-68
2023/08/26 03:54:24;;;;;;;5.97;4.68;;;18.60;99.90;;;;;;5033517;28;20510;-68
2023/08/26 03:56:49;;;;;;;7.47;4.30;;;18.40;99.90;;;;;;5033626;28;20116;-68
2023/08/26 03:59:15;;;;;;;10.02;4.72;;;;;;;;;;5051540;28;20159;-68
2023/08/26 04:01:41;;;;;;;5.97;4.38;;;18.70;99.90;;;;;;5033821;28;20037;-68
2023/08/26 04:04:07;;;;;;;7.80;4.25;;;18.50;99.90;;;;;;5051399;28;20044;-68
2023/08/26 04:06:33;;;;;;;7.70;4.00;;;18.50;99.90;;;;;;5033886;28;20121;-69
2023/08/26 04:09:02;;;;;;;6.68;4.05;;;18.50;99.90;;;;;;5033797;28;20044;-68
2023/08/26 04:11:28;;;;;;;7.75;4.20;;;18.70;99.90;;;;;;5017098;28;20048;-68
2023/08/26 04:13:53;;;;;;;4.63;4.15;;;18.60;99.90;;;;;;5033384;28;20150;-67
2023/08/26 04:16:21;;;;;;;6.82;4.10;;;18.90;99.90;;;;;;5053439;28;20535;-68
2023/08/26 04:18:47;;;;;;;6.45;4.05;;;18.50;99.90;;;;;;5055368;28;20130;-68
2023/08/26 04:21:13;;;;;;;5.40;4.32;;;18.70;99.90;;;;;;5037397;28;20037;-68
2023/08/26 04:23:39;;;;;;;5.82;4.20;;;;;;;;;;5055200;28;20095;-68
2023/08/26 04:26:05;;;;;;;7.35;3.53;;;18.70;99.90;;;;;;5055239;28;20080;-68
2023/08/26 04:28:31;;;;;;;4.80;3.65;;;18.80;99.90;;;;;;5037161;28;20084;-68
2023/08/26 04:30:58;;;;;;;4.10;3.28;;;18.80;99.90;;;;;;5037161;28;20052;-68
2023/08/26 04:33:24;;;;;;;9.13;4.22;;;18.90;99.90;;;;;;5055191;28;20080;-67
2023/08/26 04:35:50;;;;;;;4.78;3.30;;;18.60;99.90;;;;;;5054912;28;20071;-68
2023/08/26 04:38:16;;;;;;;6.00;4.22;;;;;;;;;;5054989;28;20044;-68
2023/08/26 04:40:41;;;;;;;8.38;3.60;;;18.70;99.90;;;;;;5054750;28;20437;-68
2023/08/26 04:43:08;;;;;;;3.97;3.47;;;18.70;99.90;;;;;;5036887;28;20049;-67
2023/08/26 04:45:36;;;;;;;6.75;4.20;;;;;;;;;;5036719;28;20033;-67
2023/08/26 04:48:02;;;;;;;7.93;4.38;;;18.70;99.90;;;;;;5054873;28;20052;-68
2023/08/26 04:50:29;;;;;;;6.75;3.60;;;18.80;99.90;;;;;;5054755;28;20063;-68
2023/08/26 04:52:55;;;;;;;10.00;3.67;;;;;;;;;;5036805;28;20523;-67
2023/08/26 04:55:21;;;;;;;4.15;3.35;;;;;;;;;;5054534;28;20068;-69
2023/08/26 04:57:46;;;;;;;6.72;3.78;;;18.50;99.90;;;;;;5036754;28;20049;-68
2023/08/26 05:00:15;;;;;;;9.52;3.38;;;18.40;99.90;;;;;;5036555;28;20049;-68
2023/08/26 05:02:41;;;;;;;7.72;3.78;;;;;;;;;;5036962;28;20443;-68
2023/08/26 05:05:07;;;;;;;5.32;3.72;;;18.40;99.90;;;;;;5036490;28;20041;-68
2023/08/26 05:07:33;;;;;;;5.55;3.55;;;18.50;99.90;;;;;;5054398;28;20083;-68
2023/08/26 05:09:59;;;;;;;5.82;3.72;;;18.40;99.90;;;;;;5054591;28;20269;-68
2023/08/26 05:12:24;;;;;;;8.00;4.45;;;18.60;99.90;;;;;;5054430;28;20124;-68
2023/08/26 05:14:50;;;;;;;7.95;4.32;;;18.40;99.90;;;;;;5037525;28;20063;-68
2023/08/26 05:17:16;;;;;;;5.75;4.45;;;18.50;99.90;;;;;;5038046;28;20041;-68
2023/08/26 05:19:42;;;;;;;7.55;4.60;;;;;;;;;;5054959;28;20040;-69
2023/08/26 05:22:08;;;;;;;8.15;4.75;;;18.30;99.90;;;;;;5019738;28;20124;-68
2023/08/26 05:24:34;;;;;;;7.40;4.78;;;;;;;;;;5036139;28;20115;-68
2023/08/26 05:27:00;;;;;;;6.93;4.75;;;18.60;99.90;;;;;;5036263;28;20041;-68
2023/08/26 05:29:25;;;;;;;10.15;4.88;;;18.50;99.90;;;;;;5054292;28;20029;-68
2023/08/26 05:31:51;;;;;;;8.80;5.00;;;18.50;99.90;;;;;;5036174;28;20033;-68
2023/08/26 05:34:16;;;;;;;5.10;4.32;;;18.60;99.90;;;;;;5053839;28;20076;-68
2023/08/26 05:36:42;;;;;;;6.32;4.60;;;;;;;;;;5053925;28;20072;-68
2023/08/26 05:39:08;;;;;;;7.43;4.25;;;18.60;99.90;;;;;;5035907;28;20571;-68
2023/08/26 05:41:33;;;;;;;4.75;3.47;;;18.70;99.90;;;;;;5036088;28;20044;-67
2023/08/26 05:43:59;;;;;;;5.88;3.10;;;18.50;99.90;;;;;;5035648;28;20468;-68
2023/08/26 05:46:24;;;;;;;7.13;3.13;;;18.70;99.90;;;;;;5053796;28;20098;-68
2023/08/26 05:48:50;;;;;;;3.92;2.78;;;18.80;99.90;;;;;;5035905;28;20050;-68
2023/08/26 05:51:16;;;;;;;3.40;2.25;;;18.80;99.90;;;;;;5035686;28;20385;-68
2023/08/26 05:53:41;;;;;;;6.90;2.40;;;18.70;99.90;;;;;;5035817;28;20041;-68
2023/08/26 05:56:07;;;;;;;4.10;2.33;;;18.80;99.90;;;;;;5035698;28;20453;-68
2023/08/26 05:58:32;;;;;;;5.50;2.00;;;18.80;99.90;;;;;;5035537;28;20112;-68
2023/08/26 06:00:58;;;;;;;2.65;1.98;;;18.60;99.90;;;;;;5053397;28;20084;-68
2023/08/26 06:03:24;;;;;;;4.90;1.92;;;;;;;;;;5019369;28;20131;-68
2023/08/26 06:05:49;;;;;;;2.00;1.65;;;18.90;99.90;;;;;;5052989;28;20055;-68
2023/08/26 06:08:15;;;;;;;4.53;1.60;;;18.70;99.90;;;;;;5035438;28;20120;-68
2023/08/26 06:10:41;;;;;;;3.92;1.63;;;18.60;99.90;;;;;;5035380;28;20068;-68
2023/08/26 06:13:06;;;;;;;5.18;1.77;;;18.70;99.90;;;;;;5053366;28;20546;-68
2023/08/26 06:15:32;;;;;;;2.45;1.67;;;18.90;99.90;;;;;;5035223;28;20037;-68
2023/08/26 06:17:59;;;;;;;2.38;1.70;;;18.70;99.90;;;;;;5053126;28;20037;-68
2023/08/26 06:20:25;;;;;;;5.63;2.10;;;;;;;;;;5052757;28;20501;-68
2023/08/26 06:22:52;;;;;;;2.35;1.33;;;19.00;99.90;;;;;;5053089;28;20098;-68
2023/08/26 06:25:18;;;;;;;1.70;1.30;;;;;;;;;;5035021;28;20059;-68
2023/08/26 06:27:43;;;;;;;2.33;1.73;;;18.90;99.90;;;;;;5035152;28;20083;-68
2023/08/26 06:30:09;;;;;;;3.33;1.70;;;18.70;99.90;;;;;;5053090;28;20076;-68
2023/08/26 06:32:35;;;;;;;1.60;1.50;;;18.90;99.90;;;;;;5053105;28;20041;-68
2023/08/26 06:35:01;;;;;;;5.75;2.25;;;18.70;99.90;;;;;;5052759;28;20400;-68
2023/08/26 06:37:27;;;;;;;2.45;2.10;;;18.80;99.90;;;;;;5052808;28;20041;-68
2023/08/26 06:39:52;;;;;;;5.13;2.60;;;18.90;99.90;;;;;;5034172;28;20045;-68
2023/08/26 06:42:18;;;;;;;5.15;2.90;;;19.00;99.90;;;;;;5052613;28;20045;-68
2023/08/26 06:44:44;;;;;;;5.15;3.13;;;19.00;99.90;;;;;;5052476;28;20040;-68
2023/08/26 06:47:09;;;;;;;8.57;4.75;;;19.10;99.90;;;;;;5035017;28;20039;-68
2023/08/26 06:49:36;;;;;;;5.88;3.70;;;19.20;99.90;;;;;;5034474;28;20510;-68
2023/08/26 06:52:02;;;;;;;4.55;3.85;;;19.30;99.90;;;;;;5034545;28;20045;-68
2023/08/26 06:54:28;;;;;;;8.15;5.65;;;19.20;99.90;;;;;;5052138;28;20570;-68
2023/08/26 06:56:54;;;;;;;7.75;5.30;;;19.40;99.90;;;;;;5034390;28;20386;-68
2023/08/26 06:59:19;;;;;;;7.80;5.50;;;19.30;99.90;;;;;;5052196;28;20047;-67
2023/08/26 07:01:45;;;;;;;11.15;6.15;;;19.50;99.90;;;;;;5052191;28;20116;-68
2023/08/26 07:04:11;;;;;;;11.82;6.75;;;19.40;99.90;;;;;;5034099;28;20040;-68
2023/08/26 07:06:38;;;;;;;11.07;6.13;;;19.60;99.90;;;;;;5034783;28;20068;-68
2023/08/26 07:09:04;;;;;;;9.82;8.05;;;19.90;99.90;;;;;;5034265;28;20147;-68
2023/08/26 07:11:30;;;;;;;13.25;8.43;;;19.80;99.90;;;;;;5034408;28;20055;-68
2023/08/26 07:13:57;;;;;;;15.00;9.95;;;20.10;99.90;;;;;;5034096;28;20037;-67
2023/08/26 07:16:24;;;;;;;11.80;8.57;;;20.20;99.90;;;;;;5052001;28;20230;-68
2023/08/26 07:18:49;;;;;;;14.10;9.38;;;20.40;99.90;;;;;;5034100;28;20059;-68
2023/08/26 07:21:15;;;;;;;13.50;9.98;;;20.40;99.90;;;;;;5052003;28;20033;-68
2023/08/26 07:23:41;;;;;;;15.50;10.48;;;20.50;99.90;;;;;;5052096;28;20064;-68
2023/08/26 07:26:07;;;;;;;15.52;10.38;;;;;;;;;;5051761;28;20524;-68
2023/08/26 07:28:32;;;;;;;19.35;11.25;;;20.50;99.90;;;;;;5034178;28;20512;-68
2023/08/26 07:31:03;;;;;;;16.15;9.63;;;20.50;99.90;;;;;;5033914;28;20052;-68
2023/08/26 07:33:30;;;;;;;14.20;10.43;;;21.00;99.90;;;;;;5034021;28;20048;-68
2023/08/26 07:36:02;;;;;;;13.75;10.60;;;20.90;99.90;;;;;;5051624;28;20333;-68
2023/08/26 07:38:28;;;;;;;13.18;10.23;;;21.10;99.90;;;;;;5051728;28;20420;-68
2023/08/26 07:40:54;;;;;;;11.35;9.77;;;;;;;;;;5033860;28;20037;-66
2023/08/26 07:43:20;;;;;;;12.73;10.20;;;20.90;99.90;;;;;;5051757;28;20047;-68
2023/08/26 07:45:45;;;;;;;16.42;10.80;;;20.80;99.90;;;;;;5033839;28;20451;-68
2023/08/26 07:48:11;;;;;;;14.02;9.73;;;;;;;;;;5051855;28;20115;-68
2023/08/26 07:50:38;;;;;;;17.58;11.75;;;21.10;99.90;;;;;;5050612;28;20492;-68
2023/08/26 07:53:05;;;;;;;21.10;11.55;;;21.40;99.90;;;;;;5051426;28;20124;-68
2023/08/26 07:55:34;;;;;;;13.15;10.23;;;21.10;99.90;;;;;;5051222;28;20048;-68
2023/08/26 07:58:00;;;;;;;12.77;11.38;;;21.40;99.90;;;;;;5033533;28;20132;-68
2023/08/26 08:00:26;;;;;;;15.13;10.40;;;21.40;99.90;;;;;;5051222;28;20116;-68
2023/08/26 08:02:51;;;;;;;13.05;9.95;;;21.80;99.90;;;;;;5033489;28;20055;-68
2023/08/26 08:05:17;;;;;;;19.15;11.45;;;21.70;99.90;;;;;;5051388;28;20489;-68
2023/08/26 08:07:43;;;;;;;16.60;11.70;;;21.60;99.90;;;;;;5033810;28;20041;-68
2023/08/26 08:10:09;;;;;;;16.65;11.15;;;21.60;99.90;;;;;;5051307;28;20067;-68
2023/08/26 08:12:35;;;;;;;13.52;11.13;;;21.80;99.90;;;;;;5033700;28;20033;-68
2023/08/26 08:15:01;;;;;;;12.48;10.52;;;21.80;99.90;;;;;;5051052;28;20079;-68
2023/08/26 08:17:27;;;;;;;13.90;10.35;;;21.40;99.90;;;;;;5033470;28;20489;-68
2023/08/26 08:25:05;;;;;;;13.23;9.88;;;;;;;;;;5010288;28;20050;-69
2023/08/26 08:27:43;;;;;;;12.90;10.65;;;21.50;99.90;;;;;;4994668;28;20045;-70
2023/08/26 08:30:13;;;;;;;14.80;10.57;;;21.50;99.90;;;;;;4978626;28;20100;-69
2023/08/26 08:32:48;;;;;;;12.82;9.90;;;21.50;99.90;;;;;;4994532;28;20096;-70
2023/08/26 08:35:23;;;;;;;9.50;7.82;;;;;;;;;;4979748;28;20124;-70
2023/08/26 08:38:38;;;;;;;10.00;7.80;;;21.80;99.90;;;;;;4994300;28;20108;-70
2023/08/26 08:41:12;;;;;;;7.40;6.57;;;;;;;;;;4993745;28;20091;-70
2023/08/26 08:43:45;;;;;;;10.48;7.82;;;21.80;99.90;;;;;;4994449;28;20034;-69
2023/08/26 08:46:14;;;;;;;10.27;7.10;;;22.00;99.90;;;;;;4994377;28;20077;-69
2023/08/26 08:48:46;;;;;;;8.63;5.10;;;21.70;99.90;;;;;;5011745;28;20108;-69
2023/08/26 08:51:19;;;;;;;7.80;4.88;;;21.80;99.90;;;;;;5011959;28;20042;-70
2023/08/26 08:54:14;;;;;;;5.75;4.13;;;21.70;99.90;;;;;;4978439;28;20409;-69
2023/08/26 08:56:45;;;;;;;7.03;3.40;;;21.60;99.90;;;;;;4990634;28;20524;-69
2023/08/26 08:59:15;;;;;;;9.43;3.78;;;21.60;99.90;;;;;;5011891;28;20120;-69
2023/08/26 09:01:46;;;;;;;4.63;3.20;;;21.60;99.90;;;;;;5011782;28;20498;-69
2023/08/26 09:04:29;;;;;;;;;;;;;;;;;;;;;
2023/08/26 09:07:07;;;;;;;8.52;3.00;;;21.70;99.90;;;;;;4997780;28;20580;-69
2023/08/26 09:09:42;;;;;;;6.10;3.30;;;21.50;99.90;;;;;;4997901;28;20120;-69
2023/08/26 09:12:27;;;;;;;5.88;3.85;;;21.50;99.90;;;;;;5015224;28;20120;-69
2023/08/26 09:18:19;;;;;;;6.47;2.75;;;21.50;99.90;;;;;;4987864;28;20399;-69
2023/08/26 09:20:48;;;;;;;4.18;2.90;;;21.40;99.90;;;;;;4997784;28;20037;-69
2023/08/26 09:23:50;;;;;;;;;;;;;;;;;;;;;
2023/08/26 09:26:27;;;;;;;;;;;;;;;;;;;;;
2023/08/26 09:29:10;;;;;;;4.50;2.13;;;;;;;;;;5010216;28;20424;-69
2023/08/26 09:31:49;;;;;;;3.58;1.85;;;21.20;99.90;;;;;;4981765;28;20046;-69
2023/08/26 09:34:28;;;;;;;4.40;1.55;;;21.70;99.90;;;;;;4981168;28;20581;-70
2023/08/26 09:36:55;;;;;;;4.97;1.80;;;21.30;99.90;;;;;;4997270;28;20085;-69
2023/08/26 09:39:21;;;;;;;6.93;2.88;;;21.20;99.90;;;;;;4997149;28;20046;-69
2023/08/26 09:41:58;;;;;;;7.80;3.40;;;21.00;99.90;;;;;;4997153;28;20092;-69
2023/08/26 09:44:35;;;;;;;5.93;2.30;;;21.00;99.90;;;;;;4981564;28;20077;-69
2023/08/26 09:47:04;;;;;;;5.60;3.70;;;;;;;;;;4997455;28;20129;-69
2023/08/26 09:49:58;;;;;;;6.25;3.63;;;20.60;99.90;;;;;;4997245;28;20041;-69
2023/08/26 09:53:02;;;;;;;8.93;3.67;;;21.00;99.90;;;;;;4996810;28;20406;-68
2023/08/26 09:55:39;;;;;;;5.20;3.72;;;20.80;99.90;;;;;;4996949;28;20124;-68
2023/08/26 09:58:38;;;;;;;7.93;5.00;;;21.00;99.90;;;;;;4981397;28;20038;-69
2023/08/26 10:01:07;;;;;;;7.65;4.57;;;21.00;99.90;;;;;;4996843;28;20045;-69
2023/08/26 10:03:43;;;;;;;6.65;3.85;;;20.90;99.90;;;;;;4981319;28;20042;-68
2023/08/26 10:06:38;;;;;;;4.20;2.28;;;20.70;99.90;;;;;;5014084;28;20033;-69
2023/08/26 10:10:00;;;;;;;7.63;2.53;;;20.80;99.90;;;;;;5014420;28;20033;-69
2023/08/26 10:12:38;;;;;;;5.43;1.80;;;20.60;99.90;;;;;;5009165;28;20084;-69
2023/08/26 10:21:34;;;;;;;2.80;1.55;;;19.10;99.90;;;;;;4982311;28;20148;-69
2023/08/26 10:24:21;;;;;;;4.97;1.50;;;21.90;99.90;;;;;;4980441;28;20057;-69
2023/08/26 10:27:27;;;;;;;2.58;1.60;;;20.70;99.90;;;;;;5010476;28;20500;-69
2023/08/26 10:30:11;;;;;;;1.85;1.35;;;21.00;99.90;;;;;;4996189;28;20053;-69
2023/08/26 10:33:05;;;;;;;2.63;1.48;;;21.10;99.90;;;;;;4980498;28;20048;-69
2023/08/26 10:35:59;;;;;;;2.10;1.27;;;21.40;99.90;;;;;;4995978;28;20100;-69
2023/08/26 10:38:55;;;;;;;2.65;1.33;;;21.60;99.90;;;;;;5012469;28;20066;-69
2023/08/26 10:41:26;;;;;;;2.72;1.15;;;21.40;99.90;;;;;;4995764;28;20049;-70
2023/08/26 10:44:13;;;;;;;2.78;1.25;;;21.90;99.90;;;;;;4979722;28;20128;-70
2023/08/26 10:46:59;;;;;;;1.48;1.35;;;22.10;99.90;;;;;;4980580;28;20045;-70
2023/08/26 10:49:48;;;;;;;4.10;1.65;;;22.30;99.90;;;;;;4995756;28;20092;-70
2023/08/26 10:53:01;;;;;;;;;;;;;;;;;;;;;
2023/08/26 10:55:51;;;;;;;3.63;2.50;;;21.90;99.90;;;;;;4991671;28;20045;-71
2023/08/26 10:58:51;;;;;;;5.13;2.92;;;21.70;99.90;;;;;;5013511;28;20041;-71
2023/08/26 11:01:39;;;;;;;;;;;;;;;;;;;;;
2023/08/26 11:04:30;;;;;;;;;;;;;;;;;;;;;
2023/08/26 11:07:04;;;;;;;6.10;4.40;;;22.20;99.90;;;;;;4996049;28;20038;-71
2023/08/26 11:09:33;;;;;;;6.30;4.63;;;22.40;99.90;;;;;;4979192;28;20493;-70
2023/08/26 11:12:33;;;;;;;5.70;4.55;;;22.60;99.90;;;;;;4981171;28;20133;-71
2023/08/26 11:15:22;;;;;;;7.20;4.00;;;23.10;99.90;;;;;;4980065;28;20118;-71
2023/08/26 11:17:54;;;;;;;6.43;3.97;;;23.20;99.90;;;;;;4995338;28;20040;-71
2023/08/26 11:20:21;;;;;;;4.50;3.30;;;23.00;99.90;;;;;;4995300;28;20464;-71
2023/08/26 11:23:03;;;;;;;3.28;1.88;;;23.20;99.90;;;;;;4995660;28;20111;-70
2023/08/26 11:25:36;;;;;;;3.55;1.40;;;23.40;99.90;;;;;;4979131;28;20398;-71
2023/08/26 11:28:14;;;;;;;;;;;23.30;99.90;;;;;;4994667;28;20048;-71
2023/08/26 11:31:01;;;;;;;2.47;1.05;;;23.40;99.90;;;;;;4995436;28;20351;-70
2023/08/26 11:36:27;;;;;;;4.22;1.38;;;23.80;99.90;;;;;;4979473;28;20054;-71
2023/08/26 11:39:07;;;;;;;2.20;0.90;;;23.80;99.90;;;;;;4978581;28;20062;-71
2023/08/26 11:41:39;;;;;;;2.83;1.20;;;;;;;;;;4995028;28;20526;-71
2023/08/26 11:44:31;;;;;;;1.23;0.90;;;23.10;99.90;;;;;;4979509;28;20053;-71
2023/08/26 11:47:10;;;;;;;5.25;1.17;;;23.10;99.90;;;;;;4992787;28;20635;-71
2023/08/26 11:49:44;;;;;;;7.05;1.85;;;22.90;99.90;;;;;;4979545;28;20442;-71
2023/08/26 11:52:16;;;;;;;1.33;0.70;;;22.80;99.90;;;;;;4979194;28;20073;-71
2023/08/26 11:54:44;;;;;;;1.92;1.20;;;22.80;99.90;;;;;;4978699;28;20044;-71
2023/08/26 11:57:30;;;;;;;1.55;0.82;;;22.70;99.90;;;;;;4976750;28;20045;-71
2023/08/26 12:00:19;;;;;;;4.03;2.03;;;22.50;99.90;;;;;;4994717;28;20383;-72
2023/08/26 12:03:19;;;;;;;1.90;1.70;;;22.60;99.90;;;;;;4978479;28;20050;-71
2023/08/26 12:05:55;;;;;;;2.47;1.60;;;22.70;99.90;;;;;;4978590;28;20069;-71
2023/08/26 12:08:25;;;;;;;3.10;1.70;;;22.60;99.90;;;;;;4995137;28;20096;-72
2023/08/26 12:11:02;;;;;;;2.40;1.40;;;23.10;99.90;;;;;;4995215;28;20049;-71
2023/08/26 12:13:43;;;;;;;3.58;1.52;;;23.40;99.90;;;;;;4999566;28;20092;-71
2023/08/26 12:16:12;;;;;;;2.58;1.17;;;23.70;99.90;;;;;;4994767;28;20085;-70
2023/08/26 12:21:50;;;;;;;2.15;1.52;;;24.00;99.90;;;;;;4981045;28;20092;-70
2023/08/26 12:24:32;;;;;;;3.28;1.10;;;24.80;99.90;;;;;;4994513;28;20046;-70
2023/08/26 12:27:13;;;;;;;2.58;1.40;;;24.50;99.90;;;;;;4994550;28;20065;-70
2023/08/26 12:30:03;;;;;;;1.63;1.00;;;23.90;99.90;;;;;;4979250;28;20045;-70
2023/08/26 12:32:32;;;;;;;2.53;0.93;;;24.00;99.90;;;;;;5010773;28;20128;-70
2023/08/26 12:35:11;;;;;;;4.15;1.80;;;24.40;99.90;;;;;;4978035;28;20049;-71
2023/08/26 12:38:05;;;;;;;3.33;1.65;;;23.70;99.90;;;;;;5014870;28;20050;-70
2023/08/26 12:40:48;;;;;;;;;;;;;;;;;;;;;
2023/08/26 12:43:33;;;;;;;;;;;23.00;99.90;;;;;;5015517;28;20058;-69
2023/08/26 12:49:08;;;;;;;2.88;1.30;;;22.60;99.90;;;;;;4992862;28;20127;-71
2023/08/26 12:51:47;;;;;;;5.30;1.42;;;22.50;99.90;;;;;;4998277;28;20041;-70
2023/08/26 12:54:38;;;;;;;3.50;1.50;;;22.60;99.90;;;;;;4982949;28;20305;-70
2023/08/26 12:57:13;;;;;;;3.20;1.70;;;22.60;99.90;;;;;;4982655;28;20480;-70
2023/08/26 13:00:09;;;;;;;2.83;1.30;;;21.60;99.90;;;;;;4981607;28;20054;-70
2023/08/26 13:02:48;;;;;;;2.15;1.10;;;22.40;99.90;;;;;;4998321;28;20092;-71
2023/08/26 13:05:22;;;;;;;2.63;1.10;;;22.50;99.90;;;;;;4998125;28;20038;-71
2023/08/26 13:07:56;;;;;;;5.93;1.08;;;22.30;99.90;;;;;;4998163;28;20034;-71
2023/08/26 13:10:25;;;;;;;2.78;0.93;;;22.30;99.90;;;;;;4981880;28;20413;-71
2023/08/26 13:12:55;;;;;;;2.97;0.95;;;22.30;99.90;;;;;;4981773;28;20060;-71
2023/08/26 13:15:27;;;;;;;2.42;1.13;;;22.30;99.90;;;;;;4997821;28;20054;-71
2023/08/26 13:18:04;;;;;;;2.85;0.95;;;22.20;99.90;;;;;;4983016;28;20564;-71
2023/08/26 13:21:04;;;;;;;2.05;1.45;;;22.20;99.90;;;;;;4981476;28;20044;-70
2023/08/26 13:23:36;;;;;;;2.72;0.90;;;22.40;99.90;;;;;;4981033;28;20128;-71
2023/08/26 13:26:14;;;;;;;3.10;0.90;;;23.10;99.90;;;;;;4981871;28;20056;-71
2023/08/26 13:28:43;;;;;;;2.05;1.10;;;23.10;99.90;;;;;;4997147;28;20080;-71
2023/08/26 13:31:17;;;;;;;2.88;1.83;;;23.30;99.90;;;;;;4978942;28;20058;-71
2023/08/26 13:34:06;;;;;;;2.58;2.03;;;23.30;99.90;;;;;;4998925;28;20038;-71
2023/08/26 13:36:55;;;;;;;2.85;2.65;;;23.40;99.90;;;;;;4980919;28;20513;-71
2023/08/26 13:39:21;;;;;;;2.88;1.88;;;23.50;99.90;;;;;;4980975;28;20034;-71
2023/08/26 13:41:50;;;;;;;3.08;2.50;;;23.60;99.90;;;;;;4980766;28;20088;-71
2023/08/26 13:44:36;;;;;;;7.65;2.83;;;23.60;99.90;;;;;;4980770;28;20053;-71
2023/08/26 13:47:48;;;;;;;2.75;2.17;;;23.90;99.90;;;;;;4997412;28;20441;-71
2023/08/26 13:50:11;;;;;;;2.08;1.17;;;24.30;99.90;;;;;;4993813;28;20505;-71